Time;durP1;ratioP1;P1;durP2;ratioP2;P2;SDS_P1;SDS_P2;PMS_P1;PMS_P2;Temp;Humidity;BMP_temperature;BMP_pressure;BME280_temperature;BME280_humidity;BME280_pressure;Samples;Min_cycle;Max_cycle;Signal;HPM_P1;HPM_P2
2021/12/19 00:00:55;;;;;;;;;;;8.00;55.40;;;;;;5055197;28;19966;-64
2021/12/19 00:03:47;;;;;;;;;;;8.00;55.50;;;;;;5055042;28;20000;-64
2021/12/19 00:09:00;;;;;;;;;;;8.00;55.60;;;;;;5055102;28;19991;-63
2021/12/19 00:11:35;;;;;;;;;;;7.90;55.60;;;;;;5055111;28;19909;-64
2021/12/19 00:14:01;;;;;;;;;;;7.90;55.70;;;;;;5054978;28;19970;-64
2021/12/19 00:16:27;;;;;;;;;;;7.80;55.70;;;;;;5054677;28;20023;-64
2021/12/19 00:18:53;;;;;;;;;;;7.80;55.80;;;;;;5054815;28;19913;-64
2021/12/19 00:21:20;;;;;;;;;;;7.80;55.80;;;;;;5054792;28;19908;-64
2021/12/19 00:23:47;;;;;;;;;;;7.80;55.90;;;;;;5054807;28;20316;-64
2021/12/19 00:26:13;;;;;;;;;;;7.80;56.00;;;;;;5054944;28;19997;-64
2021/12/19 00:28:39;;;;;;;;;;;7.80;56.00;;;;;;5053470;28;20273;-64
2021/12/19 00:31:05;;;;;;;;;;;7.80;56.00;;;;;;5054711;28;20046;-64
2021/12/19 00:33:32;;;;;;;;;;;7.80;56.00;;;;;;5054639;28;19909;-63
2021/12/19 00:35:58;;;;;;;;;;;7.90;56.10;;;;;;5054609;28;19971;-64
2021/12/19 00:38:23;;;;;;;;;;;7.90;56.10;;;;;;5054533;28;19909;-64
2021/12/19 00:40:49;;;;;;;;;;;7.90;56.10;;;;;;5052570;28;20314;-64
2021/12/19 00:43:33;;;;;;;;;;;7.90;56.00;;;;;;5054146;28;19915;-63
2021/12/19 00:46:06;;;;;;;;;;;7.90;56.10;;;;;;5054372;28;20366;-64
2021/12/19 00:48:32;;;;;;;;;;;7.90;56.10;;;;;;5054387;28;19958;-64
2021/12/19 00:50:57;;;;;;;;;;;7.90;56.10;;;;;;5054291;28;19909;-64
2021/12/19 00:53:23;;;;;;;;;;;7.90;56.10;;;;;;5054221;28;19999;-64
2021/12/19 00:55:48;;;;;;;;;;;7.90;56.10;;;;;;5054196;28;19962;-64
2021/12/19 00:58:14;;;;;;;;;;;7.90;56.10;;;;;;5054191;28;20285;-64
2021/12/19 01:00:40;;;;;;;;;;;7.90;56.10;;;;;;5054137;28;19954;-64
2021/12/19 01:03:06;;;;;;;;;;;7.90;56.10;;;;;;5054002;28;19917;-64
2021/12/19 01:05:34;;;;;;;;;;;7.90;56.10;;;;;;5054199;28;19913;-63
2021/12/19 01:07:59;;;;;;;;;;;7.90;56.10;;;;;;5053967;28;19908;-64
2021/12/19 01:10:25;;;;;;;;;;;7.90;56.10;;;;;;5053888;28;19913;-64
2021/12/19 01:12:50;;;;;;;;;;;7.90;56.20;;;;;;5052517;28;19958;-64
2021/12/19 01:15:17;;;;;;;;;;;7.90;56.20;;;;;;5053830;28;19958;-64
2021/12/19 01:17:43;;;;;;;;;;;7.90;56.10;;;;;;5053444;28;20043;-64
2021/12/19 01:20:17;;;;;;;;;;;7.90;56.20;;;;;;5053757;28;19995;-65
2021/12/19 01:22:43;;;;;;;;;;;7.80;56.20;;;;;;5053683;28;19952;-64
2021/12/19 01:25:09;;;;;;;;;;;7.80;56.20;;;;;;5053516;28;19943;-64
2021/12/19 01:27:35;;;;;;;;;;;7.80;56.20;;;;;;5052307;28;19909;-64
2021/12/19 01:30:00;;;;;;;;;;;7.80;56.30;;;;;;5053574;28;19912;-68
2021/12/19 01:32:26;;;;;;;;;;;7.80;56.40;;;;;;5053502;28;20285;-64
2021/12/19 01:34:52;;;;;;;;;;;7.70;56.40;;;;;;5053446;28;20309;-63
2021/12/19 01:37:17;;;;;;;;;;;7.70;56.40;;;;;;5053439;28;20317;-64
2021/12/19 01:39:43;;;;;;;;;;;7.70;56.50;;;;;;5053400;28;19911;-64
2021/12/19 01:42:09;;;;;;;;;;;7.70;56.50;;;;;;5053676;28;19909;-64
2021/12/19 01:44:35;;;;;;;;;;;7.70;56.50;;;;;;5053262;28;19915;-64
2021/12/19 01:47:04;;;;;;;;;;;7.70;56.50;;;;;;5053214;28;19913;-64
2021/12/19 01:49:30;;;;;;;;;;;7.70;56.60;;;;;;5053248;28;19909;-63
2021/12/19 01:51:55;;;;;;;;;;;7.70;56.60;;;;;;5053047;28;20362;-64
2021/12/19 01:54:21;;;;;;;;;;;7.70;56.60;;;;;;5053061;28;19959;-64
2021/12/19 01:56:47;;;;;;;;;;;7.70;56.70;;;;;;5053151;28;19970;-63
2021/12/19 01:59:12;;;;;;;;;;;7.70;56.70;;;;;;5053130;28;20227;-63
2021/12/19 02:01:42;;;;;;;;;;;7.60;56.70;;;;;;5053031;28;20282;-63
2021/12/19 02:04:09;;;;;;;;;;;7.60;56.70;;;;;;5052796;28;20413;-63
2021/12/19 02:06:34;;;;;;;;;;;7.60;56.80;;;;;;5052751;28;19920;-64
2021/12/19 02:09:05;;;;;;;;;;;7.50;56.90;;;;;;5052873;28;19908;-64
2021/12/19 02:11:31;;;;;;;;;;;7.50;56.90;;;;;;5051615;28;19958;-64
2021/12/19 02:13:57;;;;;;;;;;;7.50;57.00;;;;;;5052854;28;19916;-64
2021/12/19 02:16:22;;;;;;;;;;;7.50;57.00;;;;;;5052531;28;19909;-64
2021/12/19 02:18:48;;;;;;;;;;;7.40;57.00;;;;;;5052992;28;20013;-64
2021/12/19 02:21:16;;;;;;;;;;;7.40;57.10;;;;;;5052803;28;20035;-64
2021/12/19 02:23:41;;;;;;;;;;;7.40;57.20;;;;;;5052777;28;19909;-64
2021/12/19 02:26:07;;;;;;;;;;;7.40;57.20;;;;;;5052692;28;19935;-64
2021/12/19 02:28:33;;;;;;;;;;;7.40;57.30;;;;;;5052736;28;19999;-64
2021/12/19 02:30:59;;;;;;;;;;;7.40;57.30;;;;;;5052739;28;19912;-64
2021/12/19 02:33:27;;;;;;;;;;;7.50;57.40;;;;;;5052823;28;20443;-64
2021/12/19 02:36:05;;;;;;;;;;;7.50;57.40;;;;;;5051553;28;19974;-64
2021/12/19 02:39:14;;;;;;;;;;;7.40;57.40;;;;;;5052675;28;20282;-62
2021/12/19 02:49:24;;;;;;;;;;;7.40;57.40;;;;;;5052987;28;19916;-64
2021/12/19 02:51:51;;;;;;;;;;;7.40;57.50;;;;;;5052600;28;19909;-64
2021/12/19 02:54:17;;;;;;;;;;;7.40;57.50;;;;;;5052584;28;19982;-64
2021/12/19 02:56:43;;;;;;;;;;;7.40;57.70;;;;;;5052805;28;20362;-64
2021/12/19 02:59:09;;;;;;;;;;;7.30;57.60;;;;;;5052535;28;19909;-65
2021/12/19 03:01:34;;;;;;;;;;;7.30;57.60;;;;;;5052504;28;20291;-64
2021/12/19 03:04:00;;;;;;;;;;;7.30;57.60;;;;;;5052368;28;19909;-64
2021/12/19 03:06:25;;;;;;;;;;;7.30;57.70;;;;;;5056007;28;19913;-64
2021/12/19 03:08:52;;;;;;;;;;;7.30;57.70;;;;;;5056241;28;19999;-62
2021/12/19 03:19:15;;;;;;;;;;;7.20;57.90;;;;;;5056051;28;19967;-64
2021/12/19 03:21:41;;;;;;;;;;;7.20;58.00;;;;;;5055947;28;19909;-64
2021/12/19 03:24:07;;;;;;;;;;;7.10;58.00;;;;;;5055932;28;20015;-64
2021/12/19 03:26:33;;;;;;;;;;;7.10;58.20;;;;;;5055798;28;20366;-64
2021/12/19 03:28:59;;;;;;;;;;;7.00;58.20;;;;;;5055829;28;19963;-64
2021/12/19 03:31:24;;;;;;;;;;;7.00;58.30;;;;;;5055775;28;19913;-64
2021/12/19 03:33:50;;;;;;;;;;;6.90;58.40;;;;;;5055687;28;20367;-64
2021/12/19 03:36:15;;;;;;;;;;;6.90;58.50;;;;;;5055712;28;19909;-64
2021/12/19 03:38:44;;;;;;;;;;;6.90;58.50;;;;;;5055600;28;19974;-64
2021/12/19 03:41:34;;;;;;;;;;;6.90;58.70;;;;;;5055639;28;19932;-64
2021/12/19 03:43:58;;;;;;;;;;;6.80;58.70;;;;;;5055358;28;19916;-64
2021/12/19 03:46:23;;;;;;;;;;;6.80;58.70;;;;;;5055468;28;20303;-64
2021/12/19 03:48:49;;;;;;;;;;;6.80;58.80;;;;;;5055462;28;19908;-64
2021/12/19 03:51:14;;;;;;;;;;;6.70;58.90;;;;;;5055437;28;19913;-64
2021/12/19 03:53:40;;;;;;;;;;;6.70;58.90;;;;;;5055417;28;19909;-64
2021/12/19 03:56:06;;;;;;;;;;;6.70;59.10;;;;;;5055385;28;20313;-64
2021/12/19 03:58:31;;;;;;;;;;;6.70;59.10;;;;;;5055329;28;20313;-64
2021/12/19 04:01:00;;;;;;;;;;;6.70;59.10;;;;;;5055173;28;20003;-64
2021/12/19 04:03:29;;;;;;;;;;;6.60;59.10;;;;;;5055152;28;19941;-64
2021/12/19 04:05:55;;;;;;;;;;;6.60;59.10;;;;;;5055143;28;19936;-67
2021/12/19 04:08:20;;;;;;;;;;;6.70;59.10;;;;;;5055032;28;20362;-64
2021/12/19 04:10:48;;;;;;;;;;;6.60;59.10;;;;;;5055094;28;19916;-63
2021/12/19 04:13:14;;;;;;;;;;;6.60;59.10;;;;;;5054856;28;19935;-64
2021/12/19 04:15:39;;;;;;;;;;;6.70;59.20;;;;;;5054769;28;19905;-64
2021/12/19 04:18:05;;;;;;;;;;;6.70;59.10;;;;;;5054674;28;19951;-64
2021/12/19 04:20:31;;;;;;;;;;;6.70;59.20;;;;;;5054937;28;19913;-64
2021/12/19 04:22:57;;;;;;;;;;;6.70;59.20;;;;;;5053888;28;20274;-64
2021/12/19 04:25:23;;;;;;;;;;;6.70;59.20;;;;;;5054709;28;19913;-64
2021/12/19 04:27:49;;;;;;;;;;;6.70;59.30;;;;;;5054663;28;19959;-64
2021/12/19 04:30:17;;;;;;;;;;;6.70;59.20;;;;;;5054663;28;20007;-64
2021/12/19 04:32:46;;;;;;;;;;;6.80;59.30;;;;;;5054603;28;19909;-64
2021/12/19 04:35:12;;;;;;;;;;;6.80;59.30;;;;;;5054538;28;19909;-64
2021/12/19 04:40:28;;;;;;;;;;;6.80;59.20;;;;;;5054684;28;19963;-64
2021/12/19 05:04:50;;;;;;;;;;;6.70;59.40;;;;;;5054045;28;20003;-63
2021/12/19 05:14:24;;;;;;;;;;;6.80;59.60;;;;;;5054242;28;20364;-63
2021/12/19 05:16:50;;;;;;;;;;;6.80;59.60;;;;;;5053680;28;19916;-63
2021/12/19 05:19:25;;;;;;;;;;;6.80;59.60;;;;;;5053787;28;19912;-63
2021/12/19 05:21:55;;;;;;;;;;;6.80;59.60;;;;;;5053749;28;19905;-63
2021/12/19 05:27:01;;;;;;;;;;;6.80;59.50;;;;;;5053412;28;19920;-63
2021/12/19 05:29:28;;;;;;;;;;;6.80;59.50;;;;;;5053606;28;19909;-63
2021/12/19 05:31:54;;;;;;;;;;;6.80;59.40;;;;;;5053555;28;19966;-63
2021/12/19 05:34:19;;;;;;;;;;;6.80;59.40;;;;;;5053570;28;19909;-63
2021/12/19 05:45:14;;;;;;;;;;;6.80;59.50;;;;;;5053326;28;19916;-63
2021/12/19 05:47:40;;;;;;;;;;;6.80;59.50;;;;;;5053409;28;20370;-63
2021/12/19 05:50:06;;;;;;;;;;;6.80;59.50;;;;;;5053349;28;19909;-63
2021/12/19 05:52:32;;;;;;;;;;;6.80;59.60;;;;;;5053291;28;19909;-63
2021/12/19 05:54:58;;;;;;;;;;;6.80;59.50;;;;;;5053239;28;19909;-63
2021/12/19 05:57:23;;;;;;;;;;;6.80;59.50;;;;;;5053223;28;19909;-63
2021/12/19 05:59:50;;;;;;;;;;;6.80;59.50;;;;;;5053480;28;19908;-63
2021/12/19 06:02:16;;;;;;;;;;;6.80;59.60;;;;;;5053127;28;19935;-63
2021/12/19 06:04:42;;;;;;;;;;;6.80;59.60;;;;;;5053048;28;19909;-63
2021/12/19 06:07:07;;;;;;;;;;;6.80;59.60;;;;;;5053063;28;20011;-63
2021/12/19 06:09:33;;;;;;;;;;;6.80;59.50;;;;;;5053076;28;19969;-63
2021/12/19 06:11:58;;;;;;;;;;;6.80;59.50;;;;;;5052779;28;19909;-63
2021/12/19 06:14:25;;;;;;;;;;;6.80;59.50;;;;;;5053057;28;19909;-63
2021/12/19 06:16:51;;;;;;;;;;;6.80;59.60;;;;;;5051460;28;19924;-63
2021/12/19 06:19:17;;;;;;;;;;;6.80;59.60;;;;;;5052982;28;19909;-63
2021/12/19 06:21:42;;;;;;;;;;;6.80;60.30;;;;;;5052911;28;19905;-63
2021/12/19 06:24:08;;;;;;;;;;;6.80;59.70;;;;;;5052956;28;19908;-63
2021/12/19 06:26:35;;;;;;;;;;;6.80;59.70;;;;;;5052843;28;20285;-63
2021/12/19 06:29:02;;;;;;;;;;;6.80;59.70;;;;;;5052889;28;19915;-63
2021/12/19 06:31:28;;;;;;;;;;;6.80;60.30;;;;;;5052888;28;19909;-63
2021/12/19 06:33:54;;;;;;;;;;;6.80;59.70;;;;;;5052807;28;19915;-63
2021/12/19 06:36:20;;;;;;;;;;;6.80;59.70;;;;;;5052817;28;19909;-63
2021/12/19 06:38:45;;;;;;;;;;;6.80;59.70;;;;;;5052766;28;20263;-63
2021/12/19 06:41:11;;;;;;;;;;;6.80;59.70;;;;;;5056215;28;20000;-63
2021/12/19 06:43:37;;;;;;;;;;;6.80;59.70;;;;;;5056764;28;19959;-63
2021/12/19 06:46:02;;;;;;;;;;;6.80;59.80;;;;;;5056490;28;20313;-63
2021/12/19 06:48:28;;;;;;;;;;;6.80;59.80;;;;;;5055366;28;19995;-63
2021/12/19 06:50:54;;;;;;;;;;;6.80;59.80;;;;;;5056657;28;19958;-63
2021/12/19 06:53:23;;;;;;;;;;;6.80;59.80;;;;;;5056651;28;20003;-63
2021/12/19 06:55:49;;;;;;;;;;;6.80;59.80;;;;;;5056493;28;19912;-64
2021/12/19 06:58:14;;;;;;;;;;;6.80;59.90;;;;;;5056427;28;20354;-63
2021/12/19 07:00:40;;;;;;;;;;;6.80;59.90;;;;;;5056490;28;20403;-63
2021/12/19 07:03:05;;;;;;;;;;;6.80;59.80;;;;;;5056324;28;19909;-63
2021/12/19 07:05:31;;;;;;;;;;;6.80;59.80;;;;;;5056293;28;20286;-63
2021/12/19 07:07:57;;;;;;;;;;;6.80;59.90;;;;;;5056390;28;19916;-63
2021/12/19 07:10:22;;;;;;;;;;;6.80;59.90;;;;;;5056205;28;20386;-63
2021/12/19 07:12:48;;;;;;;;;;;6.80;59.90;;;;;;5056197;28;19909;-63
2021/12/19 07:15:18;;;;;;;;;;;6.80;59.90;;;;;;5056107;28;19915;-66
2021/12/19 07:17:44;;;;;;;;;;;6.80;59.90;;;;;;5055956;28;19959;-63
2021/12/19 07:20:10;;;;;;;;;;;6.80;60.00;;;;;;5055993;28;19912;-63
2021/12/19 07:22:36;;;;;;;;;;;6.80;60.00;;;;;;5055956;28;19909;-63
2021/12/19 07:25:01;;;;;;;;;;;6.80;60.10;;;;;;5055871;28;20374;-63
2021/12/19 07:27:27;;;;;;;;;;;6.80;60.10;;;;;;5055816;28;20354;-63
2021/12/19 07:29:56;;;;;;;;;;;6.90;60.20;;;;;;5055929;28;19913;-64
2021/12/19 07:32:22;;;;;;;;;;;6.90;60.20;;;;;;5055733;28;20003;-64
2021/12/19 07:34:49;;;;;;;;;;;6.90;60.30;;;;;;5055755;28;19955;-64
2021/12/19 07:37:15;;;;;;;;;;;6.90;60.30;;;;;;5055650;28;19909;-64
2021/12/19 07:39:52;;;;;;;;;;;6.90;60.40;;;;;;5055706;28;20427;-64
2021/12/19 07:42:18;;;;;;;;;;;6.90;60.40;;;;;;5055651;28;19908;-64
2021/12/19 07:44:44;;;;;;;;;;;6.90;60.30;;;;;;5055654;28;19916;-64
2021/12/19 07:47:10;;;;;;;;;;;6.80;60.50;;;;;;5055513;28;20377;-64
2021/12/19 07:49:36;;;;;;;;;;;6.80;60.60;;;;;;5055525;28;19909;-64
2021/12/19 07:52:02;;;;;;;;;;;6.80;60.70;;;;;;5054851;28;20400;-64
2021/12/19 07:54:28;;;;;;;;;;;6.80;61.00;;;;;;5055379;28;20329;-64
2021/12/19 07:56:54;;;;;;;;;;;6.80;61.00;;;;;;5055236;28;19912;-64
2021/12/19 07:59:19;;;;;;;;;;;6.80;61.20;;;;;;5053985;28;19916;-64
2021/12/19 08:01:45;;;;;;;;;;;6.80;61.20;;;;;;5055230;28;19967;-65
2021/12/19 08:04:10;;;;;;;;;;;6.80;61.30;;;;;;5055177;28;19909;-65
2021/12/19 08:06:36;;;;;;;;;;;6.80;61.30;;;;;;5055114;28;19913;-65
2021/12/19 08:09:09;;;;;;;;;;;6.80;61.30;;;;;;5055040;28;20320;-64
2021/12/19 08:11:40;;;;;;;;;;;6.80;61.40;;;;;;5055068;28;19916;-64
2021/12/19 08:14:15;;;;;;;;;;;6.80;61.50;;;;;;5054998;28;19958;-64
2021/12/19 08:16:42;;;;;;;;;;;6.90;61.50;;;;;;5054724;28;20003;-65
2021/12/19 08:19:08;;;;;;;;;;;6.90;61.70;;;;;;5054928;28;19970;-65
2021/12/19 08:21:34;;;;;;;;;;;6.90;61.70;;;;;;5054832;28;19913;-65
2021/12/19 08:24:02;;;;;;;;;;;6.90;61.80;;;;;;5054802;28;19915;-65
2021/12/19 08:26:30;;;;;;;;;;;6.90;61.80;;;;;;5054659;28;20000;-65
2021/12/19 08:28:56;;;;;;;;;;;6.90;61.80;;;;;;5054654;28;19915;-65
2021/12/19 08:31:22;;;;;;;;;;;6.90;61.80;;;;;;5054777;28;20046;-65
2021/12/19 08:33:48;;;;;;;;;;;6.90;61.80;;;;;;5054708;28;19963;-66
2021/12/19 08:36:14;;;;;;;;;;;6.90;61.80;;;;;;5054648;28;19908;-65
2021/12/19 08:38:39;;;;;;;;;;;6.90;61.80;;;;;;5053256;28;20004;-66
2021/12/19 08:41:05;;;;;;;;;;;6.90;61.80;;;;;;5054505;28;19936;-66
2021/12/19 08:43:31;;;;;;;;;;;6.90;62.00;;;;;;5054437;28;20380;-67
2021/12/19 08:45:56;;;;;;;;;;;6.90;62.00;;;;;;5054307;28;19912;-66
2021/12/19 08:48:22;;;;;;;;;;;6.90;62.20;;;;;;5054394;28;19944;-67
2021/12/19 08:50:49;;;;;;;;;;;6.90;62.20;;;;;;5054380;28;19911;-67
2021/12/19 08:53:15;;;;;;;;;;;6.90;62.30;;;;;;5054383;28;19909;-67
2021/12/19 08:55:41;;;;;;;;;;;6.90;62.40;;;;;;5054299;28;19928;-67
2021/12/19 08:58:06;;;;;;;;;;;6.90;62.40;;;;;;5054225;28;19909;-67
2021/12/19 09:00:33;;;;;;;;;;;6.90;62.40;;;;;;5054153;28;19917;-67
2021/12/19 09:02:59;;;;;;;;;;;6.90;62.50;;;;;;5053154;28;19995;-67
2021/12/19 09:05:26;;;;;;;;;;;7.00;62.50;;;;;;5054017;28;20012;-67
2021/12/19 09:07:52;;;;;;;;;;;7.00;62.70;;;;;;5053776;28;20004;-67
2021/12/19 09:10:19;;;;;;;;;;;7.00;62.60;;;;;;5054092;28;19916;-67
2021/12/19 09:12:45;;;;;;;;;;;7.00;62.60;;;;;;5053930;28;19940;-67
2021/12/19 09:15:11;;;;;;;;;;;7.10;62.70;;;;;;5053774;28;19940;-68
2021/12/19 09:17:37;;;;;;;;;;;7.10;62.60;;;;;;5053473;28;19927;-68
2021/12/19 09:20:04;;;;;;;;;;;7.10;62.70;;;;;;5054052;28;19909;-67
2021/12/19 09:22:30;;;;;;;;;;;7.10;62.90;;;;;;5053735;28;20278;-68
2021/12/19 09:24:56;;;;;;;;;;;7.20;63.00;;;;;;5053719;28;19909;-69
2021/12/19 09:27:21;;;;;;;;;;;7.20;63.00;;;;;;5053635;28;19998;-68
2021/12/19 09:29:47;;;;;;;;;;;7.20;62.90;;;;;;5053653;28;19909;-68
2021/12/19 09:32:13;;;;;;;;;;;7.20;62.80;;;;;;5053575;28;19909;-68
2021/12/19 09:34:38;;;;;;;;;;;7.20;62.70;;;;;;5053503;28;19948;-68
2021/12/19 09:37:04;;;;;;;;;;;7.20;62.60;;;;;;5053485;28;19916;-68
2021/12/19 09:39:31;;;;;;;;;;;7.30;62.70;;;;;;5053454;28;20251;-68
2021/12/19 09:41:59;;;;;;;;;;;7.30;62.70;;;;;;5053349;28;19916;-68
2021/12/19 09:44:25;;;;;;;;;;;7.40;62.70;;;;;;5053277;28;20389;-68
2021/12/19 09:46:51;;;;;;;;;;;7.30;62.60;;;;;;5053272;28;19948;-68
2021/12/19 09:49:18;;;;;;;;;;;7.40;62.60;;;;;;5053266;28;19908;-68
2021/12/19 09:51:44;;;;;;;;;;;7.40;62.70;;;;;;5053312;28;20378;-68
2021/12/19 09:54:10;;;;;;;;;;;7.40;62.60;;;;;;5051960;28;19952;-67
2021/12/19 09:56:38;;;;;;;;;;;7.40;62.60;;;;;;5053264;28;19974;-67
2021/12/19 09:59:08;;;;;;;;;;;7.50;62.60;;;;;;5053059;28;19920;-68
2021/12/19 10:01:36;;;;;;;;;;;7.50;62.50;;;;;;5053179;28;19956;-68
2021/12/19 10:04:02;;;;;;;;;;;7.50;62.30;;;;;;5052954;28;19905;-68
2021/12/19 10:06:29;;;;;;;;;;;7.50;62.30;;;;;;5052866;28;20016;-67
2021/12/19 10:09:15;;;;;;;;;;;7.50;62.30;;;;;;5053035;28;19913;-68
2021/12/19 10:11:59;;;;;;;;;;;7.60;62.40;;;;;;5051766;28;19908;-68
2021/12/19 10:14:30;;;;;;;;;;;7.60;62.30;;;;;;5052783;28;19920;-68
2021/12/19 10:16:56;;;;;;;;;;;7.60;62.20;;;;;;5052804;28;19983;-68
2021/12/19 10:19:39;;;;;;;;;;;7.60;62.20;;;;;;5052832;28;19962;-68
2021/12/19 10:22:05;;;;;;;;;;;7.70;62.30;;;;;;5052930;28;19905;-68
2021/12/19 10:24:31;;;;;;;;;;;7.70;62.30;;;;;;5052856;28;19909;-68
2021/12/19 10:26:58;;;;;;;;;;;7.80;63.10;;;;;;5052818;28;19913;-68
2021/12/19 10:29:43;;;;;;;;;;;7.90;62.10;;;;;;5052917;28;19909;-68
2021/12/19 10:32:09;;;;;;;;;;;7.90;62.00;;;;;;5052740;28;20366;-68
2021/12/19 10:34:35;;;;;;;;;;;7.90;61.80;;;;;;5052678;28;19916;-68
2021/12/19 10:37:00;;;;;;;;;;;7.90;61.70;;;;;;5052758;28;19909;-68
2021/12/19 10:39:34;;;;;;;;;;;8.00;61.70;;;;;;5051428;28;19916;-68
2021/12/19 10:42:01;;;;;;;;;;;8.00;61.60;;;;;;5052621;28;20401;-68
2021/12/19 10:47:19;;;;;;;;;;;8.00;61.10;;;;;;5052677;28;20274;-68
2021/12/19 10:49:46;;;;;;;;;;;8.00;60.90;;;;;;5052692;28;20012;-68
2021/12/19 10:52:11;;;;;;;;;;;8.10;61.00;;;;;;5052643;28;19916;-68
2021/12/19 10:54:55;;;;;;;;;;;8.10;61.00;;;;;;5052637;28;19909;-68
2021/12/19 10:57:29;;;;;;;;;;;8.10;61.00;;;;;;5052632;28;19909;-68
2021/12/19 10:59:55;;;;;;;;;;;8.20;60.90;;;;;;5052510;28;19909;-67
2021/12/19 11:02:33;;;;;;;;;;;8.20;60.60;;;;;;5052479;28;19920;-68
2021/12/19 11:04:58;;;;;;;;;;;8.20;60.50;;;;;;5052448;28;19909;-68
2021/12/19 11:07:24;;;;;;;;;;;8.20;60.60;;;;;;5052366;28;20000;-68
2021/12/19 11:09:50;;;;;;;;;;;8.30;60.40;;;;;;5052458;28;19909;-68
2021/12/19 11:12:15;;;;;;;;;;;8.30;60.10;;;;;;5052434;28;19944;-67
2021/12/19 11:14:47;;;;;;;;;;;8.30;60.00;;;;;;5052351;28;20003;-67
2021/12/19 11:17:15;;;;;;;;;;;8.30;60.80;;;;;;5052287;28;19921;-68
2021/12/19 11:19:41;;;;;;;;;;;8.30;59.80;;;;;;5052378;28;19916;-67
2021/12/19 11:22:08;;;;;;;;;;;8.20;59.60;;;;;;5052422;28;20414;-67
2021/12/19 11:24:33;;;;;;;;;;;8.20;59.60;;;;;;5052356;28;20362;-67
2021/12/19 11:27:00;;;;;;;;;;;8.20;59.60;;;;;;5055208;28;19928;-66
2021/12/19 11:29:26;;;;;;;;;;;8.10;59.40;;;;;;5055917;28;19916;-67
2021/12/19 11:31:57;;;;;;;;;;;8.10;59.50;;;;;;5055706;28;19908;-66
2021/12/19 11:34:23;;;;;;;;;;;8.00;59.40;;;;;;5055806;28;19916;-67
2021/12/19 11:37:09;;;;;;;;;;;8.00;59.50;;;;;;5055668;28;19908;-66
2021/12/19 11:39:36;;;;;;;;;;;8.00;59.70;;;;;;5055460;28;19912;-66
2021/12/19 11:42:08;;;;;;;;;;;8.00;59.70;;;;;;5055583;28;19966;-65
2021/12/19 11:44:35;;;;;;;;;;;8.00;59.70;;;;;;5055639;28;20371;-65
2021/12/19 11:47:06;;;;;;;;;;;8.00;59.80;;;;;;5054659;28;20345;-65
2021/12/19 11:49:32;;;;;;;;;;;8.00;59.60;;;;;;5055834;28;19916;-65
2021/12/19 11:52:16;;;;;;;;;;;8.00;59.60;;;;;;5055520;28;19909;-65
2021/12/19 11:54:42;;;;;;;;;;;8.10;59.50;;;;;;5055463;28;19916;-65
2021/12/19 11:57:09;;;;;;;;;;;8.10;59.70;;;;;;5055420;28;19909;-64
2021/12/19 11:59:38;;;;;;;;;;;8.20;59.70;;;;;;5055346;28;20263;-65
2021/12/19 12:02:23;;;;;;;;;;;8.20;59.60;;;;;;5054851;28;20003;-63
2021/12/19 12:05:07;;;;;;;;;;;8.30;59.70;;;;;;5055248;28;19916;-63
2021/12/19 12:07:51;;;;;;;;;;;8.30;59.50;;;;;;5055022;28;19920;-63
2021/12/19 12:10:18;;;;;;;;;;;8.40;59.30;;;;;;5055046;28;20402;-64
2021/12/19 12:12:50;;;;;;;;;;;8.40;59.30;;;;;;5054962;28;19935;-64
2021/12/19 12:15:16;;;;;;;;;;;8.40;59.30;;;;;;5054981;28;20252;-64
2021/12/19 12:17:49;;;;;;;;;;;8.40;58.90;;;;;;5054763;28;19978;-64
2021/12/19 12:20:19;;;;;;;;;;;8.50;59.00;;;;;;5054222;28;20296;-64
2021/12/19 12:22:56;;;;;;;;;;;8.40;58.60;;;;;;5054929;28;19916;-64
2021/12/19 12:25:22;;;;;;;;;;;8.40;58.40;;;;;;5054716;28;19916;-64
2021/12/19 12:27:51;;;;;;;;;;;8.40;58.30;;;;;;5054784;28;20333;-63
2021/12/19 12:30:22;;;;;;;;;;;8.30;58.00;;;;;;5054787;28;19909;-64
2021/12/19 12:32:48;;;;;;;;;;;8.30;58.10;;;;;;5054724;28;20256;-64
2021/12/19 12:35:17;;;;;;;;;;;8.30;58.20;;;;;;5054689;28;20020;-64
2021/12/19 12:37:44;;;;;;;;;;;8.20;58.20;;;;;;5053408;28;19909;-64
2021/12/19 12:40:30;;;;;;;;;;;8.20;58.20;;;;;;5054501;28;19947;-64
2021/12/19 12:42:57;;;;;;;;;;;8.20;58.20;;;;;;5054530;28;19909;-64
2021/12/19 12:45:23;;;;;;;;;;;8.10;58.00;;;;;;5054383;28;20326;-64
2021/12/19 12:47:49;;;;;;;;;;;8.10;58.10;;;;;;5054366;28;19995;-64
2021/12/19 12:50:15;;;;;;;;;;;8.10;58.10;;;;;;5053145;28;20004;-64
2021/12/19 12:52:40;;;;;;;;;;;8.00;58.10;;;;;;5054245;28;19909;-64
2021/12/19 12:55:06;;;;;;;;;;;8.00;58.20;;;;;;5054162;28;19909;-64
2021/12/19 12:57:35;;;;;;;;;;;8.00;58.30;;;;;;5054055;28;19958;-65
2021/12/19 13:00:01;;;;;;;;;;;8.00;58.30;;;;;;5054108;28;20007;-64
2021/12/19 13:02:40;;;;;;;;;;;8.00;58.30;;;;;;5053865;28;19909;-64
2021/12/19 13:05:09;;;;;;;;;;;8.00;58.30;;;;;;5054069;28;19909;-62
2021/12/19 13:07:35;;;;;;;;;;;8.00;58.30;;;;;;5053954;28;19942;-65
2021/12/19 13:10:01;;;;;;;;;;;8.00;58.30;;;;;;5053880;28;19909;-63
2021/12/19 13:12:28;;;;;;;;;;;8.00;58.40;;;;;;5053974;28;19909;-64
2021/12/19 13:15:04;;;;;;;;;;;8.00;58.40;;;;;;5053745;28;19916;-64
2021/12/19 13:17:36;;;;;;;;;;;8.00;58.50;;;;;;5052380;28;20310;-64
2021/12/19 13:20:14;;;;;;;;;;;8.00;58.50;;;;;;5053807;28;19947;-64
2021/12/19 13:22:50;;;;;;;;;;;8.10;58.60;;;;;;5053677;28;19909;-64
2021/12/19 13:25:21;;;;;;;;;;;8.10;58.50;;;;;;5053688;28;19909;-64
2021/12/19 13:27:47;;;;;;;;;;;8.10;58.50;;;;;;5053710;28;20374;-64
2021/12/19 13:30:25;;;;;;;;;;;8.10;58.40;;;;;;5053662;28;19916;-65
2021/12/19 13:32:52;;;;;;;;;;;8.10;58.30;;;;;;5053878;28;20247;-64
2021/12/19 13:35:17;;;;;;;;;;;8.10;58.30;;;;;;5053528;28;19909;-64
2021/12/19 13:37:55;;;;;;;;;;;8.10;58.30;;;;;;5053600;28;20361;-63
2021/12/19 13:40:22;;;;;;;;;;;8.10;58.30;;;;;;5053460;28;20392;-63
2021/12/19 13:42:49;;;;;;;;;;;8.10;58.30;;;;;;5053165;28;19974;-63
2021/12/19 13:45:26;;;;;;;;;;;8.10;58.30;;;;;;5053261;28;20251;-64
2021/12/19 13:47:52;;;;;;;;;;;8.10;58.20;;;;;;5052949;28;19909;-64
2021/12/19 13:50:18;;;;;;;;;;;8.10;58.20;;;;;;5053142;28;20314;-64
2021/12/19 13:52:44;;;;;;;;;;;8.10;58.10;;;;;;5053342;28;19909;-64
2021/12/19 13:55:11;;;;;;;;;;;8.00;58.10;;;;;;5053254;28;19909;-65
2021/12/19 13:57:36;;;;;;;;;;;8.00;58.20;;;;;;5053143;28;19954;-64
2021/12/19 14:00:07;;;;;;;;;;;8.00;58.20;;;;;;5052723;28;19909;-64
2021/12/19 14:02:39;;;;;;;;;;;8.00;58.30;;;;;;5053700;28;19916;-68
2021/12/19 14:05:28;;;;;;;;;;;8.10;58.30;;;;;;5063189;28;20353;-68
2021/12/19 14:07:54;;;;;;;;;;;8.00;58.30;;;;;;5052467;28;19913;-68
2021/12/19 14:10:20;;;;;;;;;;;8.00;58.30;;;;;;5053112;28;19916;-68
2021/12/19 14:15:27;;;;;;;;;;;8.10;58.20;;;;;;5058380;28;20361;-69
2021/12/19 14:17:52;;;;;;;;;;;8.10;58.20;;;;;;5071577;28;19921;-68
2021/12/19 14:20:32;;;;;;;;;;;8.00;58.10;;;;;;5072855;28;19962;-68
2021/12/19 14:23:14;;;;;;;;;;;8.00;58.10;;;;;;5072908;28;19909;-67
2021/12/19 14:25:39;;;;;;;;;;;8.00;58.00;;;;;;5052691;28;19916;-67
2021/12/19 14:28:16;;;;;;;;;;;8.00;58.00;;;;;;5052814;28;19916;-68
2021/12/19 14:30:41;;;;;;;;;;;8.00;58.10;;;;;;5052841;28;20038;-67
2021/12/19 14:33:07;;;;;;;;;;;8.00;58.20;;;;;;5052653;28;20382;-67
2021/12/19 14:35:33;;;;;;;;;;;8.00;58.20;;;;;;5072713;28;19962;-68
2021/12/19 14:38:00;;;;;;;;;;;8.00;58.20;;;;;;5072678;28;19909;-68
2021/12/19 14:40:27;;;;;;;;;;;8.00;58.20;;;;;;5072688;28;20317;-68
2021/12/19 14:42:57;;;;;;;;;;;8.00;58.20;;;;;;5072779;28;19905;-68
2021/12/19 14:45:27;;;;;;;;;;;8.00;58.20;;;;;;5053921;28;20382;-68
2021/12/19 14:47:59;;;;;;;;;;;8.00;58.10;;;;;;5052646;28;19913;-68
2021/12/19 14:50:27;;;;;;;;;;;8.00;58.10;;;;;;5052640;28;19955;-68
2021/12/19 14:53:22;;;;;;;;;;;8.00;58.10;;;;;;5054801;28;19913;-67
2021/12/19 14:55:58;;;;;;;;;;;8.00;58.10;;;;;;5052269;28;19936;-66
2021/12/19 14:58:25;;;;;;;;;;;7.90;57.90;;;;;;5052469;28;20379;-66
2021/12/19 15:00:53;;;;;;;;;;;7.90;57.90;;;;;;5053791;28;19909;-66
2021/12/19 15:03:19;;;;;;;;;;;7.90;58.00;;;;;;5074229;28;19909;-67
2021/12/19 15:05:45;;;;;;;;;;;7.90;58.00;;;;;;5076275;28;19923;-68
2021/12/19 15:08:14;;;;;;;;;;;7.90;58.00;;;;;;5076278;28;19908;-68
2021/12/19 15:10:39;;;;;;;;;;;7.90;58.00;;;;;;5076210;28;19912;-68
2021/12/19 15:13:05;;;;;;;;;;;7.90;58.00;;;;;;5059726;28;19909;-68
2021/12/19 15:15:31;;;;;;;;;;;7.80;58.00;;;;;;5056127;28;19909;-67
2021/12/19 15:17:57;;;;;;;;;;;7.80;58.00;;;;;;5067687;28;19920;-67
2021/12/19 15:20:22;;;;;;;;;;;7.80;58.10;;;;;;5059712;28;19916;-67
2021/12/19 15:22:48;;;;;;;;;;;7.80;58.10;;;;;;5068075;28;19992;-68
2021/12/19 15:25:14;;;;;;;;;;;7.80;58.10;;;;;;5074242;28;19924;-68
2021/12/19 15:27:42;;;;;;;;;;;7.80;58.10;;;;;;5075973;28;19908;-68
2021/12/19 15:30:08;;;;;;;;;;;7.80;58.10;;;;;;5076008;28;19955;-68
2021/12/19 15:32:34;;;;;;;;;;;7.80;58.00;;;;;;5067449;28;19913;-68
2021/12/19 15:35:01;;;;;;;;;;;7.80;58.10;;;;;;5055754;28;20417;-68
2021/12/19 15:37:27;;;;;;;;;;;7.80;58.10;;;;;;5055778;28;19909;-67
2021/12/19 15:39:52;;;;;;;;;;;7.80;58.10;;;;;;5055692;28;19908;-68
2021/12/19 15:42:18;;;;;;;;;;;7.80;58.00;;;;;;5055622;28;19916;-68